sensor_id;sensor_type;location;lat;lon;timestamp;P1;durP1;ratioP1;P2;durP2;ratioP2
56073;SDS011;41950;55.840;37.442;2023-12-28T10:04:14;4.20;;;2.35;;
56073;SDS011;41950;55.840;37.442;2023-12-28T10:06:41;4.65;;;2.50;;
56073;SDS011;41950;55.840;37.442;2023-12-28T10:09:06;4.13;;;2.50;;
56073;SDS011;41950;55.840;37.442;2023-12-28T10:11:33;3.97;;;2.58;;
56073;SDS011;41950;55.840;37.442;2023-12-28T10:13:58;4.53;;;2.45;;
56073;SDS011;41950;55.840;37.442;2023-12-28T10:16:25;4.82;;;3.00;;
56073;SDS011;41950;55.840;37.442;2023-12-28T10:18:51;3.92;;;2.40;;
56073;SDS011;41950;55.840;37.442;2023-12-28T10:21:17;4.45;;;2.83;;
56073;SDS011;41950;55.840;37.442;2023-12-28T10:23:42;4.47;;;2.70;;
56073;SDS011;41950;55.840;37.442;2023-12-28T10:26:08;4.47;;;3.00;;
56073;SDS011;41950;55.840;37.442;2023-12-28T10:28:34;5.45;;;2.30;;
56073;SDS011;41950;55.840;37.442;2023-12-28T10:31:03;4.80;;;2.72;;
56073;SDS011;41950;55.840;37.442;2023-12-28T10:33:36;3.65;;;2.08;;
56073;SDS011;41950;55.840;37.442;2023-12-28T10:36:05;4.32;;;2.53;;
56073;SDS011;41950;55.840;37.442;2023-12-28T10:38:35;4.80;;;2.30;;
56073;SDS011;41950;55.840;37.442;2023-12-28T10:41:08;4.60;;;2.40;;
56073;SDS011;41950;55.840;37.442;2023-12-28T10:43:46;4.45;;;2.60;;
56073;SDS011;41950;55.840;37.442;2023-12-28T10:46:25;3.70;;;1.92;;
56073;SDS011;41950;55.840;37.442;2023-12-28T10:49:10;3.15;;;1.73;;
56073;SDS011;41950;55.840;37.442;2023-12-28T10:51:40;3.72;;;2.13;;
56073;SDS011;41950;55.840;37.442;2023-12-28T10:54:33;3.83;;;2.15;;
56073;SDS011;41950;55.840;37.442;2023-12-28T10:57:34;3.95;;;2.25;;
56073;SDS011;41950;55.840;37.442;2023-12-28T11:02:47;3.63;;;2.42;;
56073;SDS011;41950;55.840;37.442;2023-12-28T11:05:17;3.90;;;2.63;;
56073;SDS011;41950;55.840;37.442;2023-12-28T11:07:46;4.88;;;2.60;;
56073;SDS011;41950;55.840;37.442;2023-12-28T11:10:13;3.80;;;2.45;;
56073;SDS011;41950;55.840;37.442;2023-12-28T11:12:39;3.85;;;2.58;;
56073;SDS011;41950;55.840;37.442;2023-12-28T11:15:05;4.38;;;1.88;;
56073;SDS011;41950;55.840;37.442;2023-12-28T11:17:31;3.90;;;2.17;;
56073;SDS011;41950;55.840;37.442;2023-12-28T11:19:58;3.65;;;2.20;;
56073;SDS011;41950;55.840;37.442;2023-12-28T11:22:25;4.85;;;2.67;;
56073;SDS011;41950;55.840;37.442;2023-12-28T11:24:54;4.15;;;2.13;;
56073;SDS011;41950;55.840;37.442;2023-12-28T11:27:21;4.55;;;2.30;;
56073;SDS011;41950;55.840;37.442;2023-12-28T11:29:49;3.85;;;2.17;;
56073;SDS011;41950;55.840;37.442;2023-12-28T11:32:17;4.50;;;2.67;;
56073;SDS011;41950;55.840;37.442;2023-12-28T11:34:44;2.92;;;1.73;;
56073;SDS011;41950;55.840;37.442;2023-12-28T11:37:15;4.32;;;2.75;;
56073;SDS011;41950;55.840;37.442;2023-12-28T11:39:45;3.88;;;2.42;;
56073;SDS011;41950;55.840;37.442;2023-12-28T11:42:18;3.35;;;1.92;;
56073;SDS011;41950;55.840;37.442;2023-12-28T11:44:45;3.80;;;2.22;;
56073;SDS011;41950;55.840;37.442;2023-12-28T11:49:41;3.40;;;2.30;;
56073;SDS011;41950;55.840;37.442;2023-12-28T11:52:07;3.40;;;1.90;;
56073;SDS011;41950;55.840;37.442;2023-12-28T11:54:35;3.30;;;1.80;;
56073;SDS011;41950;55.840;37.442;2023-12-28T11:57:01;3.65;;;1.90;;
56073;SDS011;41950;55.840;37.442;2023-12-28T11:59:26;2.10;;;1.15;;
56073;SDS011;41950;55.840;37.442;2023-12-28T12:01:52;3.10;;;1.67;;
56073;SDS011;41950;55.840;37.442;2023-12-28T12:04:21;3.70;;;1.90;;
56073;SDS011;41950;55.840;37.442;2023-12-28T12:06:47;3.17;;;1.50;;
56073;SDS011;41950;55.840;37.442;2023-12-28T12:09:16;2.58;;;1.13;;
56073;SDS011;41950;55.840;37.442;2023-12-28T12:11:45;2.78;;;1.48;;
56073;SDS011;41950;55.840;37.442;2023-12-28T12:14:10;3.38;;;1.75;;
56073;SDS011;41950;55.840;37.442;2023-12-28T12:16:37;3.33;;;1.45;;
56073;SDS011;41950;55.840;37.442;2023-12-28T12:19:06;2.45;;;1.10;;
56073;SDS011;41950;55.840;37.442;2023-12-28T12:21:33;2.45;;;1.23;;
56073;SDS011;41950;55.840;37.442;2023-12-28T12:23:59;3.17;;;1.67;;
56073;SDS011;41950;55.840;37.442;2023-12-28T12:26:26;2.80;;;1.55;;
56073;SDS011;41950;55.840;37.442;2023-12-28T12:28:53;5.38;;;2.60;;
56073;SDS011;41950;55.840;37.442;2023-12-28T12:31:19;3.55;;;1.90;;
56073;SDS011;41950;55.840;37.442;2023-12-28T12:33:45;3.67;;;2.10;;
56073;SDS011;41950;55.840;37.442;2023-12-28T12:36:11;3.33;;;1.92;;
56073;SDS011;41950;55.840;37.442;2023-12-28T12:38:37;2.20;;;1.00;;
56073;SDS011;41950;55.840;37.442;2023-12-28T12:41:02;4.18;;;2.33;;
56073;SDS011;41950;55.840;37.442;2023-12-28T12:43:28;5.35;;;2.30;;
56073;SDS011;41950;55.840;37.442;2023-12-28T12:45:54;9.15;;;4.57;;
56073;SDS011;41950;55.840;37.442;2023-12-28T12:48:20;8.80;;;4.00;;
56073;SDS011;41950;55.840;37.442;2023-12-28T12:50:47;8.77;;;4.25;;
56073;SDS011;41950;55.840;37.442;2023-12-28T12:53:12;5.68;;;2.85;;
56073;SDS011;41950;55.840;37.442;2023-12-28T12:55:38;4.03;;;2.30;;
56073;SDS011;41950;55.840;37.442;2023-12-28T12:58:04;2.85;;;1.25;;
56073;SDS011;41950;55.840;37.442;2023-12-28T13:00:30;2.80;;;1.50;;
56073;SDS011;41950;55.840;37.442;2023-12-28T13:02:59;2.50;;;1.20;;
56073;SDS011;41950;55.840;37.442;2023-12-28T13:05:25;2.65;;;1.27;;
56073;SDS011;41950;55.840;37.442;2023-12-28T13:07:54;2.80;;;1.30;;
56073;SDS011;41950;55.840;37.442;2023-12-28T13:10:19;2.55;;;1.08;;
56073;SDS011;41950;55.840;37.442;2023-12-28T13:12:45;2.80;;;1.38;;
56073;SDS011;41950;55.840;37.442;2023-12-28T13:15:11;3.50;;;1.73;;
56073;SDS011;41950;55.840;37.442;2023-12-28T13:17:36;2.90;;;1.60;;
56073;SDS011;41950;55.840;37.442;2023-12-28T13:20:03;3.33;;;1.67;;
56073;SDS011;41950;55.840;37.442;2023-12-28T13:22:31;2.88;;;1.30;;
56073;SDS011;41950;55.840;37.442;2023-12-28T13:24:58;3.67;;;1.85;;
56073;SDS011;41950;55.840;37.442;2023-12-28T13:27:23;3.17;;;1.90;;
56073;SDS011;41950;55.840;37.442;2023-12-28T13:29:49;2.85;;;1.38;;
56073;SDS011;41950;55.840;37.442;2023-12-28T13:32:14;3.30;;;1.70;;
56073;SDS011;41950;55.840;37.442;2023-12-28T13:34:40;2.97;;;1.60;;
56073;SDS011;41950;55.840;37.442;2023-12-28T13:37:06;15.50;;;3.10;;
56073;SDS011;41950;55.840;37.442;2023-12-28T13:39:31;3.40;;;1.60;;
56073;SDS011;41950;55.840;37.442;2023-12-28T13:41:58;4.32;;;1.42;;
56073;SDS011;41950;55.840;37.442;2023-12-28T13:44:23;3.08;;;1.70;;
56073;SDS011;41950;55.840;37.442;2023-12-28T13:46:50;3.65;;;1.77;;
56073;SDS011;41950;55.840;37.442;2023-12-28T13:49:16;4.05;;;2.00;;
56073;SDS011;41950;55.840;37.442;2023-12-28T13:51:42;3.35;;;1.70;;
56073;SDS011;41950;55.840;37.442;2023-12-28T13:54:08;3.95;;;2.00;;
56073;SDS011;41950;55.840;37.442;2023-12-28T13:56:34;3.70;;;1.95;;
56073;SDS011;41950;55.840;37.442;2023-12-28T13:58:59;4.28;;;1.98;;
56073;SDS011;41950;55.840;37.442;2023-12-28T14:01:25;4.40;;;1.90;;
56073;SDS011;41950;55.840;37.442;2023-12-28T14:03:51;2.92;;;1.13;;
56073;SDS011;41950;55.840;37.442;2023-12-28T14:06:16;3.83;;;2.20;;
56073;SDS011;41950;55.840;37.442;2023-12-28T14:08:42;4.05;;;2.28;;
56073;SDS011;41950;55.840;37.442;2023-12-28T14:11:08;2.28;;;1.13;;
56073;SDS011;41950;55.840;37.442;2023-12-28T14:13:34;3.65;;;2.20;;
56073;SDS011;41950;55.840;37.442;2023-12-28T14:16:02;4.07;;;2.42;;
56073;SDS011;41950;55.840;37.442;2023-12-28T14:18:28;5.28;;;2.78;;
56073;SDS011;41950;55.840;37.442;2023-12-28T14:20:54;5.53;;;2.58;;
56073;SDS011;41950;55.840;37.442;2023-12-28T14:23:20;4.28;;;2.50;;
56073;SDS011;41950;55.840;37.442;2023-12-28T14:25:46;3.00;;;1.60;;
56073;SDS011;41950;55.840;37.442;2023-12-28T14:28:16;3.85;;;1.85;;
56073;SDS011;41950;55.840;37.442;2023-12-28T14:30:42;4.43;;;2.70;;
56073;SDS011;41950;55.840;37.442;2023-12-28T14:33:10;3.75;;;2.10;;
56073;SDS011;41950;55.840;37.442;2023-12-28T14:35:36;5.05;;;2.83;;
56073;SDS011;41950;55.840;37.442;2023-12-28T14:38:04;4.40;;;2.58;;
56073;SDS011;41950;55.840;37.442;2023-12-28T14:40:32;3.55;;;1.73;;
56073;SDS011;41950;55.840;37.442;2023-12-28T14:42:57;3.80;;;2.03;;
56073;SDS011;41950;55.840;37.442;2023-12-28T14:45:23;3.78;;;2.03;;
56073;SDS011;41950;55.840;37.442;2023-12-28T14:47:49;3.88;;;1.50;;
56073;SDS011;41950;55.840;37.442;2023-12-28T14:50:14;3.00;;;1.55;;
56073;SDS011;41950;55.840;37.442;2023-12-28T14:52:40;4.05;;;2.15;;
56073;SDS011;41950;55.840;37.442;2023-12-28T14:55:10;3.30;;;1.80;;
56073;SDS011;41950;55.840;37.442;2023-12-28T14:57:36;4.15;;;2.00;;
56073;SDS011;41950;55.840;37.442;2023-12-28T15:00:02;3.88;;;2.17;;
56073;SDS011;41950;55.840;37.442;2023-12-28T15:02:30;3.95;;;2.45;;
56073;SDS011;41950;55.840;37.442;2023-12-28T15:04:56;3.35;;;1.75;;
56073;SDS011;41950;55.840;37.442;2023-12-28T15:07:23;3.97;;;2.08;;
56073;SDS011;41950;55.840;37.442;2023-12-28T15:09:49;4.22;;;2.30;;
56073;SDS011;41950;55.840;37.442;2023-12-28T15:12:14;4.32;;;2.53;;
56073;SDS011;41950;55.840;37.442;2023-12-28T15:14:40;3.80;;;2.20;;
56073;SDS011;41950;55.840;37.442;2023-12-28T15:17:06;5.97;;;2.63;;
56073;SDS011;41950;55.840;37.442;2023-12-28T15:19:32;4.40;;;2.55;;
56073;SDS011;41950;55.840;37.442;2023-12-28T15:21:58;4.70;;;2.75;;
56073;SDS011;41950;55.840;37.442;2023-12-28T15:24:24;4.43;;;2.45;;
56073;SDS011;41950;55.840;37.442;2023-12-28T15:26:50;4.18;;;2.50;;
56073;SDS011;41950;55.840;37.442;2023-12-28T15:29:16;4.45;;;2.75;;
56073;SDS011;41950;55.840;37.442;2023-12-28T15:31:42;4.43;;;2.42;;
56073;SDS011;41950;55.840;37.442;2023-12-28T15:34:07;4.78;;;2.65;;
56073;SDS011;41950;55.840;37.442;2023-12-28T15:36:33;4.88;;;2.78;;
56073;SDS011;41950;55.840;37.442;2023-12-28T15:38:58;4.97;;;3.00;;
56073;SDS011;41950;55.840;37.442;2023-12-28T15:41:24;4.93;;;2.88;;
56073;SDS011;41950;55.840;37.442;2023-12-28T15:43:50;4.88;;;2.90;;
56073;SDS011;41950;55.840;37.442;2023-12-28T15:46:16;5.32;;;3.00;;
56073;SDS011;41950;55.840;37.442;2023-12-28T15:48:41;5.53;;;3.05;;
56073;SDS011;41950;55.840;37.442;2023-12-28T15:51:10;4.22;;;2.15;;
56073;SDS011;41950;55.840;37.442;2023-12-28T15:53:35;5.68;;;3.40;;
56073;SDS011;41950;55.840;37.442;2023-12-28T15:56:01;7.13;;;3.95;;
56073;SDS011;41950;55.840;37.442;2023-12-28T15:58:27;5.32;;;3.80;;
56073;SDS011;41950;55.840;37.442;2023-12-28T16:00:52;6.43;;;3.58;;
56073;SDS011;41950;55.840;37.442;2023-12-28T16:03:18;5.70;;;3.75;;
56073;SDS011;41950;55.840;37.442;2023-12-28T16:05:44;7.07;;;3.92;;
56073;SDS011;41950;55.840;37.442;2023-12-28T16:08:09;6.40;;;3.90;;
56073;SDS011;41950;55.840;37.442;2023-12-28T16:10:35;6.05;;;4.13;;
56073;SDS011;41950;55.840;37.442;2023-12-28T16:13:00;5.55;;;3.60;;
56073;SDS011;41950;55.840;37.442;2023-12-28T16:15:26;5.75;;;3.53;;
56073;SDS011;41950;55.840;37.442;2023-12-28T16:17:52;5.35;;;3.42;;
56073;SDS011;41950;55.840;37.442;2023-12-28T16:20:23;6.28;;;3.90;;
56073;SDS011;41950;55.840;37.442;2023-12-28T16:22:49;6.55;;;4.22;;
56073;SDS011;41950;55.840;37.442;2023-12-28T16:25:15;6.50;;;3.72;;
56073;SDS011;41950;55.840;37.442;2023-12-28T16:27:41;6.00;;;4.22;;
56073;SDS011;41950;55.840;37.442;2023-12-28T16:30:07;5.55;;;3.53;;
56073;SDS011;41950;55.840;37.442;2023-12-28T16:32:33;5.30;;;3.10;;
56073;SDS011;41950;55.840;37.442;2023-12-28T16:34:59;5.43;;;3.50;;
56073;SDS011;41950;55.840;37.442;2023-12-28T16:37:24;5.90;;;3.85;;
56073;SDS011;41950;55.840;37.442;2023-12-28T16:39:50;6.05;;;3.50;;
56073;SDS011;41950;55.840;37.442;2023-12-28T16:42:15;5.53;;;3.70;;
56073;SDS011;41950;55.840;37.442;2023-12-28T16:44:41;6.53;;;3.85;;
56073;SDS011;41950;55.840;37.442;2023-12-28T16:47:10;5.78;;;3.65;;
56073;SDS011;41950;55.840;37.442;2023-12-28T16:49:36;5.07;;;2.75;;
56073;SDS011;41950;55.840;37.442;2023-12-28T16:52:03;4.85;;;2.92;;
56073;SDS011;41950;55.840;37.442;2023-12-28T16:54:29;5.03;;;3.10;;
56073;SDS011;41950;55.840;37.442;2023-12-28T16:56:55;3.88;;;2.40;;
56073;SDS011;41950;55.840;37.442;2023-12-28T16:59:20;4.70;;;2.70;;
56073;SDS011;41950;55.840;37.442;2023-12-28T17:01:46;4.18;;;2.42;;
56073;SDS011;41950;55.840;37.442;2023-12-28T17:04:11;3.60;;;1.90;;
56073;SDS011;41950;55.840;37.442;2023-12-28T17:06:37;4.28;;;2.70;;
56073;SDS011;41950;55.840;37.442;2023-12-28T17:09:03;4.95;;;3.08;;
56073;SDS011;41950;55.840;37.442;2023-12-28T17:11:35;4.32;;;2.45;;
56073;SDS011;41950;55.840;37.442;2023-12-28T17:14:01;4.40;;;2.45;;
56073;SDS011;41950;55.840;37.442;2023-12-28T17:16:27;3.67;;;2.28;;
56073;SDS011;41950;55.840;37.442;2023-12-28T17:18:53;3.78;;;2.28;;
56073;SDS011;41950;55.840;37.442;2023-12-28T17:21:20;3.50;;;2.10;;
56073;SDS011;41950;55.840;37.442;2023-12-28T17:23:51;2.63;;;1.45;;
56073;SDS011;41950;55.840;37.442;2023-12-28T17:28:58;3.45;;;2.08;;
56073;SDS011;41950;55.840;37.442;2023-12-28T17:31:35;3.42;;;1.90;;
56073;SDS011;41950;55.840;37.442;2023-12-28T17:34:02;3.33;;;1.80;;
56073;SDS011;41950;55.840;37.442;2023-12-28T17:36:29;3.33;;;2.20;;
56073;SDS011;41950;55.840;37.442;2023-12-28T17:38:59;3.90;;;2.28;;
56073;SDS011;41950;55.840;37.442;2023-12-28T17:41:33;3.55;;;1.95;;
56073;SDS011;41950;55.840;37.442;2023-12-28T17:44:06;3.50;;;1.90;;
56073;SDS011;41950;55.840;37.442;2023-12-28T17:46:47;3.63;;;1.40;;
56073;SDS011;41950;55.840;37.442;2023-12-28T17:49:14;4.15;;;1.90;;
56073;SDS011;41950;55.840;37.442;2023-12-28T17:51:56;3.83;;;2.10;;
56073;SDS011;41950;55.840;37.442;2023-12-28T17:54:23;3.65;;;2.00;;
56073;SDS011;41950;55.840;37.442;2023-12-28T17:56:53;3.30;;;1.75;;
56073;SDS011;41950;55.840;37.442;2023-12-28T17:59:19;3.08;;;1.42;;
56073;SDS011;41950;55.840;37.442;2023-12-28T18:01:45;2.65;;;1.60;;
56073;SDS011;41950;55.840;37.442;2023-12-28T18:04:12;3.60;;;1.77;;
56073;SDS011;41950;55.840;37.442;2023-12-28T18:06:38;1.90;;;0.98;;
56073;SDS011;41950;55.840;37.442;2023-12-28T18:09:04;2.60;;;1.33;;
56073;SDS011;41950;55.840;37.442;2023-12-28T18:11:32;2.85;;;1.55;;
56073;SDS011;41950;55.840;37.442;2023-12-28T18:13:58;2.90;;;1.60;;
56073;SDS011;41950;55.840;37.442;2023-12-28T18:16:23;3.13;;;1.60;;
56073;SDS011;41950;55.840;37.442;2023-12-28T18:18:49;3.28;;;1.90;;
56073;SDS011;41950;55.840;37.442;2023-12-28T18:21:15;3.20;;;1.80;;
56073;SDS011;41950;55.840;37.442;2023-12-28T18:23:41;2.80;;;1.58;;
56073;SDS011;41950;55.840;37.442;2023-12-28T18:26:07;4.10;;;1.80;;
56073;SDS011;41950;55.840;37.442;2023-12-28T18:28:33;2.85;;;1.60;;
56073;SDS011;41950;55.840;37.442;2023-12-28T18:30:59;2.45;;;1.30;;
56073;SDS011;41950;55.840;37.442;2023-12-28T18:33:25;3.47;;;1.63;;
56073;SDS011;41950;55.840;37.442;2023-12-28T18:35:51;1.52;;;0.77;;
56073;SDS011;41950;55.840;37.442;2023-12-28T18:38:17;2.35;;;1.30;;
56073;SDS011;41950;55.840;37.442;2023-12-28T18:40:43;1.73;;;1.05;;
56073;SDS011;41950;55.840;37.442;2023-12-28T18:43:15;2.38;;;1.10;;
56073;SDS011;41950;55.840;37.442;2023-12-28T18:45:45;2.40;;;1.10;;
56073;SDS011;41950;55.840;37.442;2023-12-28T18:48:11;2.55;;;1.10;;
56073;SDS011;41950;55.840;37.442;2023-12-28T18:50:38;2.75;;;1.50;;
56073;SDS011;41950;55.840;37.442;2023-12-28T18:53:04;2.60;;;1.30;;
56073;SDS011;41950;55.840;37.442;2023-12-28T18:55:31;2.45;;;1.40;;
56073;SDS011;41950;55.840;37.442;2023-12-28T18:57:56;2.67;;;1.35;;
56073;SDS011;41950;55.840;37.442;2023-12-28T19:00:22;3.20;;;1.80;;
56073;SDS011;41950;55.840;37.442;2023-12-28T19:02:48;3.20;;;1.92;;
56073;SDS011;41950;55.840;37.442;2023-12-28T19:05:13;3.63;;;1.70;;
56073;SDS011;41950;55.840;37.442;2023-12-28T19:07:41;3.20;;;1.80;;
56073;SDS011;41950;55.840;37.442;2023-12-28T19:10:06;3.35;;;1.60;;
56073;SDS011;41950;55.840;37.442;2023-12-28T19:12:32;3.95;;;1.50;;
56073;SDS011;41950;55.840;37.442;2023-12-28T19:14:58;3.38;;;1.60;;
56073;SDS011;41950;55.840;37.442;2023-12-28T19:17:24;3.35;;;1.80;;
56073;SDS011;41950;55.840;37.442;2023-12-28T19:19:50;2.65;;;1.23;;
56073;SDS011;41950;55.840;37.442;2023-12-28T19:22:16;3.47;;;1.60;;
56073;SDS011;41950;55.840;37.442;2023-12-28T19:24:42;2.50;;;1.52;;
56073;SDS011;41950;55.840;37.442;2023-12-28T19:27:08;2.67;;;1.40;;
56073;SDS011;41950;55.840;37.442;2023-12-28T19:29:34;2.90;;;1.60;;
56073;SDS011;41950;55.840;37.442;2023-12-28T19:31:59;3.20;;;1.73;;
56073;SDS011;41950;55.840;37.442;2023-12-28T19:34:25;3.20;;;1.60;;
56073;SDS011;41950;55.840;37.442;2023-12-28T19:36:51;3.25;;;1.55;;
56073;SDS011;41950;55.840;37.442;2023-12-28T19:39:16;3.17;;;1.55;;
56073;SDS011;41950;55.840;37.442;2023-12-28T19:41:42;3.25;;;1.80;;
56073;SDS011;41950;55.840;37.442;2023-12-28T19:44:07;7.05;;;4.43;;
56073;SDS011;41950;55.840;37.442;2023-12-28T19:46:33;14.40;;;12.90;;
56073;SDS011;41950;55.840;37.442;2023-12-28T19:48:59;8.75;;;6.65;;
56073;SDS011;41950;55.840;37.442;2023-12-28T19:51:28;4.28;;;2.72;;
56073;SDS011;41950;55.840;37.442;2023-12-28T19:53:53;3.00;;;1.60;;
56073;SDS011;41950;55.840;37.442;2023-12-28T19:56:19;3.17;;;1.70;;
56073;SDS011;41950;55.840;37.442;2023-12-28T19:58:44;3.42;;;1.83;;
56073;SDS011;41950;55.840;37.442;2023-12-28T20:01:10;3.30;;;1.88;;
56073;SDS011;41950;55.840;37.442;2023-12-28T20:03:37;3.30;;;1.80;;
56073;SDS011;41950;55.840;37.442;2023-12-28T20:06:06;2.83;;;1.40;;
56073;SDS011;41950;55.840;37.442;2023-12-28T20:08:34;2.72;;;1.40;;
56073;SDS011;41950;55.840;37.442;2023-12-28T20:11:00;3.30;;;1.65;;
56073;SDS011;41950;55.840;37.442;2023-12-28T20:13:26;2.85;;;1.63;;
56073;SDS011;41950;55.840;37.442;2023-12-28T20:15:51;3.10;;;1.65;;
56073;SDS011;41950;55.840;37.442;2023-12-28T20:18:17;2.83;;;1.75;;
56073;SDS011;41950;55.840;37.442;2023-12-28T20:20:42;3.15;;;1.90;;
56073;SDS011;41950;55.840;37.442;2023-12-28T20:23:08;2.60;;;1.30;;
56073;SDS011;41950;55.840;37.442;2023-12-28T20:25:34;2.80;;;1.67;;
56073;SDS011;41950;55.840;37.442;2023-12-28T20:28:02;3.08;;;1.65;;
56073;SDS011;41950;55.840;37.442;2023-12-28T20:30:28;2.63;;;1.33;;
56073;SDS011;41950;55.840;37.442;2023-12-28T20:32:55;2.83;;;1.85;;
56073;SDS011;41950;55.840;37.442;2023-12-28T20:35:21;3.00;;;1.48;;
56073;SDS011;41950;55.840;37.442;2023-12-28T20:37:46;3.10;;;1.60;;
56073;SDS011;41950;55.840;37.442;2023-12-28T20:40:12;2.63;;;1.42;;
56073;SDS011;41950;55.840;37.442;2023-12-28T20:42:38;5.68;;;1.70;;
56073;SDS011;41950;55.840;37.442;2023-12-28T20:45:03;3.47;;;2.08;;
56073;SDS011;41950;55.840;37.442;2023-12-28T20:47:29;3.70;;;1.77;;
56073;SDS011;41950;55.840;37.442;2023-12-28T20:49:55;3.50;;;1.80;;
56073;SDS011;41950;55.840;37.442;2023-12-28T20:52:21;3.83;;;1.95;;
56073;SDS011;41950;55.840;37.442;2023-12-28T20:54:47;2.95;;;1.63;;
56073;SDS011;41950;55.840;37.442;2023-12-28T20:57:13;2.72;;;1.42;;
56073;SDS011;41950;55.840;37.442;2023-12-28T20:59:40;2.47;;;1.40;;
56073;SDS011;41950;55.840;37.442;2023-12-28T21:02:09;3.00;;;1.50;;
56073;SDS011;41950;55.840;37.442;2023-12-28T21:04:36;1.73;;;0.80;;
56073;SDS011;41950;55.840;37.442;2023-12-28T21:07:01;3.20;;;1.63;;
56073;SDS011;41950;55.840;37.442;2023-12-28T21:09:27;3.22;;;1.50;;
56073;SDS011;41950;55.840;37.442;2023-12-28T21:11:52;3.42;;;1.98;;
56073;SDS011;41950;55.840;37.442;2023-12-28T21:14:25;3.72;;;1.90;;
56073;SDS011;41950;55.840;37.442;2023-12-28T21:16:52;3.22;;;1.85;;
56073;SDS011;41950;55.840;37.442;2023-12-28T21:19:18;3.78;;;1.90;;
56073;SDS011;41950;55.840;37.442;2023-12-28T21:21:43;3.83;;;2.10;;
56073;SDS011;41950;55.840;37.442;2023-12-28T21:24:09;3.38;;;2.08;;
56073;SDS011;41950;55.840;37.442;2023-12-28T21:26:35;4.22;;;2.03;;
56073;SDS011;41950;55.840;37.442;2023-12-28T21:29:00;3.85;;;2.03;;
56073;SDS011;41950;55.840;37.442;2023-12-28T21:31:26;3.85;;;2.13;;
56073;SDS011;41950;55.840;37.442;2023-12-28T21:33:53;3.63;;;1.92;;
56073;SDS011;41950;55.840;37.442;2023-12-28T21:36:19;3.63;;;2.10;;
56073;SDS011;41950;55.840;37.442;2023-12-28T21:38:44;4.00;;;2.10;;
56073;SDS011;41950;55.840;37.442;2023-12-28T21:41:10;4.00;;;2.13;;
56073;SDS011;41950;55.840;37.442;2023-12-28T21:43:35;3.35;;;1.83;;
56073;SDS011;41950;55.840;37.442;2023-12-28T21:46:03;2.42;;;1.15;;
56073;SDS011;41950;55.840;37.442;2023-12-28T21:48:28;3.30;;;1.83;;
56073;SDS011;41950;55.840;37.442;2023-12-28T21:50:54;3.28;;;1.90;;
56073;SDS011;41950;55.840;37.442;2023-12-28T21:53:20;4.05;;;2.40;;
56073;SDS011;41950;55.840;37.442;2023-12-28T21:55:46;4.07;;;2.15;;
56073;SDS011;41950;55.840;37.442;2023-12-28T21:58:11;4.60;;;2.55;;
56073;SDS011;41950;55.840;37.442;2023-12-28T22:00:38;3.47;;;1.90;;
56073;SDS011;41950;55.840;37.442;2023-12-28T22:03:03;3.92;;;2.47;;
56073;SDS011;41950;55.840;37.442;2023-12-28T22:05:29;4.25;;;2.10;;
56073;SDS011;41950;55.840;37.442;2023-12-28T22:07:55;3.90;;;2.22;;
56073;SDS011;41950;55.840;37.442;2023-12-28T22:10:21;4.05;;;2.40;;
56073;SDS011;41950;55.840;37.442;2023-12-28T22:12:46;4.25;;;2.40;;
56073;SDS011;41950;55.840;37.442;2023-12-28T22:15:12;4.95;;;2.40;;
56073;SDS011;41950;55.840;37.442;2023-12-28T22:17:38;4.82;;;2.75;;
56073;SDS011;41950;55.840;37.442;2023-12-28T22:20:06;4.68;;;2.60;;
56073;SDS011;41950;55.840;37.442;2023-12-28T22:22:32;3.63;;;2.13;;
56073;SDS011;41950;55.840;37.442;2023-12-28T22:24:57;4.40;;;2.35;;
56073;SDS011;41950;55.840;37.442;2023-12-28T22:27:23;5.55;;;2.72;;
56073;SDS011;41950;55.840;37.442;2023-12-28T22:29:49;4.45;;;2.60;;
56073;SDS011;41950;55.840;37.442;2023-12-28T22:32:14;4.60;;;2.70;;
56073;SDS011;41950;55.840;37.442;2023-12-28T22:34:40;5.05;;;2.90;;
56073;SDS011;41950;55.840;37.442;2023-12-28T22:37:05;4.72;;;2.50;;
56073;SDS011;41950;55.840;37.442;2023-12-28T22:39:31;4.25;;;2.50;;
56073;SDS011;41950;55.840;37.442;2023-12-28T22:41:57;4.97;;;2.22;;
56073;SDS011;41950;55.840;37.442;2023-12-28T22:44:23;4.30;;;2.33;;
56073;SDS011;41950;55.840;37.442;2023-12-28T22:46:48;4.25;;;2.70;;
56073;SDS011;41950;55.840;37.442;2023-12-28T22:49:14;4.63;;;2.33;;
56073;SDS011;41950;55.840;37.442;2023-12-28T22:51:39;4.55;;;2.00;;
56073;SDS011;41950;55.840;37.442;2023-12-28T22:54:05;4.22;;;2.40;;
56073;SDS011;41950;55.840;37.442;2023-12-28T22:56:30;4.68;;;2.70;;
56073;SDS011;41950;55.840;37.442;2023-12-28T22:58:56;3.88;;;2.25;;
56073;SDS011;41950;55.840;37.442;2023-12-28T23:01:22;5.53;;;2.50;;
56073;SDS011;41950;55.840;37.442;2023-12-28T23:03:48;3.97;;;2.20;;
56073;SDS011;41950;55.840;37.442;2023-12-28T23:06:14;4.80;;;2.70;;
56073;SDS011;41950;55.840;37.442;2023-12-28T23:08:40;4.47;;;2.85;;
56073;SDS011;41950;55.840;37.442;2023-12-28T23:11:06;3.90;;;2.40;;
56073;SDS011;41950;55.840;37.442;2023-12-28T23:13:32;4.35;;;2.50;;
56073;SDS011;41950;55.840;37.442;2023-12-28T23:15:57;3.58;;;1.98;;
56073;SDS011;41950;55.840;37.442;2023-12-28T23:18:23;4.47;;;2.15;;
56073;SDS011;41950;55.840;37.442;2023-12-28T23:20:49;4.55;;;2.33;;
56073;SDS011;41950;55.840;37.442;2023-12-28T23:23:15;3.67;;;2.10;;
56073;SDS011;41950;55.840;37.442;2023-12-28T23:25:41;4.43;;;2.08;;
56073;SDS011;41950;55.840;37.442;2023-12-28T23:28:06;3.80;;;2.00;;
56073;SDS011;41950;55.840;37.442;2023-12-28T23:30:32;4.18;;;2.33;;
56073;SDS011;41950;55.840;37.442;2023-12-28T23:32:57;4.15;;;2.50;;
56073;SDS011;41950;55.840;37.442;2023-12-28T23:35:23;4.68;;;2.10;;
56073;SDS011;41950;55.840;37.442;2023-12-28T23:37:49;4.60;;;2.08;;
56073;SDS011;41950;55.840;37.442;2023-12-28T23:40:14;4.32;;;2.25;;
56073;SDS011;41950;55.840;37.442;2023-12-28T23:42:40;5.40;;;2.90;;
56073;SDS011;41950;55.840;37.442;2023-12-28T23:45:07;4.95;;;2.53;;
56073;SDS011;41950;55.840;37.442;2023-12-28T23:47:33;3.95;;;2.08;;
56073;SDS011;41950;55.840;37.442;2023-12-28T23:49:59;3.58;;;2.20;;
56073;SDS011;41950;55.840;37.442;2023-12-28T23:52:24;4.30;;;2.35;;
56073;SDS011;41950;55.840;37.442;2023-12-28T23:54:50;5.03;;;2.47;;
56073;SDS011;41950;55.840;37.442;2023-12-28T23:57:16;4.95;;;2.65;;
56073;SDS011;41950;55.840;37.442;2023-12-28T23:59:42;4.30;;;2.35;;
